Time;durP1;ratioP1;P1;durP2;ratioP2;P2;SDS_P1;SDS_P2;PMS_P1;PMS_P2;Temp;Humidity;BMP_temperature;BMP_pressure;BME280_temperature;BME280_humidity;BME280_pressure;Samples;Min_cycle;Max_cycle;Signal;HPM_P1;HPM_P2
2022/04/23 00:01:17;;;;;;;15.77;14.10;;;11.30;24.70;;;;;;5034740;28;20182;-69
2022/04/23 00:03:42;;;;;;;18.40;16.53;;;11.20;24.80;;;;;;5034845;28;20181;-69
2022/04/23 00:06:08;;;;;;;15.23;13.70;;;11.20;25.20;;;;;;5034747;28;20198;-69
2022/04/23 00:08:33;;;;;;;17.83;16.13;;;11.20;25.00;;;;;;5034175;28;20355;-70
2022/04/23 00:11:02;;;;;;;16.10;14.80;;;11.20;25.20;;;;;;5034523;28;20544;-70
2022/04/23 00:13:28;;;;;;;19.27;17.57;;;11.20;25.30;;;;;;5034621;28;20186;-70
2022/04/23 00:15:53;;;;;;;16.60;14.93;;;11.20;25.70;;;;;;5034498;28;20535;-70
2022/04/23 00:18:19;;;;;;;16.87;15.30;;;11.20;25.80;;;;;;5034136;28;20179;-71
2022/04/23 00:20:46;;;;;;;15.43;14.13;;;11.10;25.90;;;;;;5029547;28;20189;-71
2022/04/23 00:23:12;;;;;;;15.90;14.20;;;11.10;26.00;;;;;;5014238;28;20243;-70
2022/04/23 00:25:39;;;;;;;17.07;15.33;;;11.00;26.40;;;;;;5019521;28;20543;-70
2022/04/23 00:28:05;;;;;;;17.50;15.70;;;11.00;26.50;;;;;;5019272;28;20467;-70
2022/04/23 00:30:31;;;;;;;16.73;15.33;;;11.00;26.80;;;;;;5014489;28;20425;-68
2022/04/23 00:33:01;;;;;;;18.40;15.93;;;11.00;26.40;;;;;;5014418;28;20499;-69
2022/04/23 00:35:27;;;;;;;18.10;16.20;;;10.90;26.60;;;;;;5014164;28;20437;-69
2022/04/23 00:37:52;;;;;;;18.57;16.67;;;10.90;26.70;;;;;;5014130;28;20774;-70
2022/04/23 00:40:18;;;;;;;18.37;16.67;;;10.80;26.90;;;;;;5029327;28;20426;-69
2022/04/23 00:42:51;;;;;;;18.33;16.43;;;10.70;27.60;;;;;;5034147;28;20250;-69
2022/04/23 00:45:17;;;;;;;16.77;14.93;;;10.70;27.60;;;;;;5032705;28;20443;-70
2022/04/23 00:47:42;;;;;;;19.83;18.00;;;10.60;27.60;;;;;;5033895;28;20430;-69
2022/04/23 00:50:09;;;;;;;17.90;16.03;;;10.60;28.00;;;;;;5032834;28;20416;-68
2022/04/23 00:52:35;;;;;;;16.57;14.77;;;10.60;27.80;;;;;;5033993;28;20182;-69
2022/04/23 00:55:05;;;;;;;19.00;17.20;;;10.60;28.10;;;;;;5032133;28;20493;-69
2022/04/23 00:57:32;;;;;;;20.20;18.10;;;10.60;27.90;;;;;;5033798;28;20422;-71
2022/04/23 00:59:59;;;;;;;21.23;18.07;;;10.60;28.20;;;;;;5024467;28;20520;-69
2022/04/23 01:02:24;;;;;;;19.37;17.43;;;10.50;28.50;;;;;;5013910;28;20419;-69
2022/04/23 01:04:49;;;;;;;20.20;18.23;;;10.60;28.50;;;;;;5012548;28;20505;-68
2022/04/23 01:07:15;;;;;;;19.93;17.53;;;10.50;28.40;;;;;;5013620;28;20572;-70
2022/04/23 01:09:44;;;;;;;22.77;19.40;;;10.50;28.60;;;;;;5023116;28;20208;-68
2022/04/23 01:12:11;;;;;;;25.33;20.43;;;10.50;28.60;;;;;;5032324;28;20172;-70
2022/04/23 01:14:56;;;;;;;23.37;18.33;;;10.40;29.00;;;;;;5033486;28;20408;-68
2022/04/23 01:17:21;;;;;;;24.03;20.13;;;10.30;29.20;;;;;;5033113;28;20412;-71
2022/04/23 01:19:47;;;;;;;22.90;18.00;;;10.30;29.30;;;;;;5033372;28;20422;-69
2022/04/23 01:22:12;;;;;;;22.60;19.70;;;10.30;29.70;;;;;;5033374;28;20171;-69
2022/04/23 01:24:38;;;;;;;22.60;20.20;;;10.20;29.80;;;;;;5032999;28;20185;-70
2022/04/23 01:27:05;;;;;;;23.87;18.83;;;10.10;30.20;;;;;;5031752;28;20665;-70
2022/04/23 01:29:30;;;;;;;24.30;21.80;;;10.10;30.40;;;;;;5033264;28;20192;-70
2022/04/23 01:31:56;;;;;;;21.70;18.30;;;10.10;30.50;;;;;;5033078;28;20454;-70
2022/04/23 01:34:22;;;;;;;25.90;20.17;;;10.10;30.70;;;;;;5033159;28;20741;-70
2022/04/23 01:36:47;;;;;;;21.60;19.40;;;10.10;31.10;;;;;;5032795;28;20593;-70
2022/04/23 01:39:13;;;;;;;24.30;19.80;;;10.10;31.10;;;;;;5032408;28;20201;-70
2022/04/23 01:41:38;;;;;;;22.20;19.00;;;10.10;31.00;;;;;;5033010;28;20293;-70
2022/04/23 01:44:04;;;;;;;21.70;19.03;;;10.10;31.10;;;;;;5032782;28;20537;-70
2022/04/23 01:46:29;;;;;;;24.00;19.70;;;10.10;30.40;;;;;;5032832;28;20271;-70
2022/04/23 01:48:55;;;;;;;20.97;18.77;;;10.00;30.90;;;;;;5032504;28;20207;-70
2022/04/23 01:51:20;;;;;;;23.23;20.63;;;10.00;31.00;;;;;;5032722;28;20182;-70
2022/04/23 01:53:46;;;;;;;23.63;20.37;;;10.00;31.00;;;;;;5032575;28;20715;-70
2022/04/23 01:56:11;;;;;;;20.70;18.30;;;10.00;30.90;;;;;;5064991;22;20242;-71
2022/04/23 01:58:37;;;;;;;21.73;19.20;;;9.90;31.80;;;;;;5052292;28;20179;-71
2022/04/23 02:01:03;;;;;;;22.70;19.73;;;9.90;32.50;;;;;;5052366;28;20249;-70
2022/04/23 02:03:29;;;;;;;27.73;20.40;;;9.80;31.70;;;;;;5052609;28;20182;-69
2022/04/23 02:05:55;;;;;;;21.70;19.43;;;9.90;31.80;;;;;;5052195;28;20187;-69
2022/04/23 02:08:21;;;;;;;20.70;17.93;;;9.80;31.70;;;;;;5051644;28;20587;-69
2022/04/23 02:10:47;;;;;;;27.30;21.47;;;9.70;31.70;;;;;;5050989;28;20179;-71
2022/04/23 02:13:13;;;;;;;20.40;18.30;;;9.60;32.80;;;;;;5052226;28;20179;-70
2022/04/23 02:15:40;;;;;;;26.13;20.37;;;9.60;31.90;;;;;;5051735;28;20425;-71
2022/04/23 02:18:06;;;;;;;25.00;19.10;;;9.50;33.20;;;;;;5051914;28;20416;-71
2022/04/23 02:20:32;;;;;;;23.83;21.27;;;9.50;33.50;;;;;;5052101;28;20932;-71
2022/04/23 02:22:57;;;;;;;24.40;18.97;;;9.40;33.70;;;;;;5051847;28;20182;-71
2022/04/23 02:25:24;;;;;;;22.70;20.27;;;9.30;35.10;;;;;;5051998;28;20199;-71
2022/04/23 02:27:50;;;;;;;21.83;19.53;;;9.30;33.80;;;;;;5051683;28;20174;-71
2022/04/23 02:30:18;;;;;;;25.50;19.03;;;9.30;35.40;;;;;;5051999;28;20752;-67
2022/04/23 02:32:45;;;;;;;21.00;18.50;;;9.30;35.20;;;;;;5052050;28;20177;-68
2022/04/23 02:35:12;;;;;;;23.73;20.60;;;9.20;35.70;;;;;;5051899;28;21008;-68
2022/04/23 02:37:40;;;;;;;26.53;20.97;;;9.20;35.40;;;;;;5051754;28;20791;-68
2022/04/23 02:40:07;;;;;;;29.87;21.97;;;9.10;35.80;;;;;;5052133;28;20491;-70
2022/04/23 02:42:33;;;;;;;33.50;21.53;;;9.10;36.00;;;;;;5051935;28;20417;-68
2022/04/23 02:45:01;;;;;;;25.63;18.60;;;9.10;36.40;;;;;;5052766;28;20401;-69
2022/04/23 02:47:28;;;;;;;21.87;19.57;;;9.10;36.40;;;;;;5051605;28;20544;-68
2022/04/23 02:49:53;;;;;;;23.30;19.27;;;9.00;36.30;;;;;;5052294;28;20467;-68
2022/04/23 02:52:20;;;;;;;22.33;20.00;;;9.00;36.30;;;;;;5052085;28;20410;-67
2022/04/23 02:54:45;;;;;;;23.10;19.37;;;9.00;36.30;;;;;;5052221;28;20170;-68
2022/04/23 02:57:11;;;;;;;26.80;21.23;;;9.10;36.40;;;;;;5051673;28;20459;-68
2022/04/23 02:59:37;;;;;;;25.80;19.73;;;9.00;36.30;;;;;;5051854;28;20180;-68
2022/04/23 03:02:03;;;;;;;23.63;20.40;;;8.90;36.20;;;;;;5052028;28;20437;-68
2022/04/23 03:04:29;;;;;;;26.43;21.20;;;8.90;36.40;;;;;;5051921;28;20177;-68
2022/04/23 03:06:55;;;;;;;22.37;18.40;;;8.80;37.00;;;;;;5051739;28;20437;-68
2022/04/23 03:09:21;;;;;;;27.50;19.33;;;8.70;37.20;;;;;;5051501;28;20282;-68
2022/04/23 03:11:47;;;;;;;27.40;21.23;;;8.60;38.30;;;;;;5051805;28;20572;-68
2022/04/23 03:14:12;;;;;;;24.67;19.40;;;8.50;38.00;;;;;;5051933;28;20170;-70
2022/04/23 03:16:38;;;;;;;25.27;20.57;;;8.50;37.70;;;;;;5051590;28;20451;-68
2022/04/23 03:19:03;;;;;;;24.57;19.20;;;8.60;38.20;;;;;;5051640;28;20175;-68
2022/04/23 03:21:29;;;;;;;19.80;17.73;;;8.50;37.50;;;;;;5051919;28;20174;-68
2022/04/23 03:23:55;;;;;;;24.27;18.13;;;8.50;36.90;;;;;;5052143;28;20225;-68
2022/04/23 03:26:20;;;;;;;24.03;18.60;;;8.50;37.20;;;;;;5052131;28;20252;-68
2022/04/23 03:28:46;;;;;;;25.20;20.23;;;8.40;37.90;;;;;;5054031;28;20214;-69
2022/04/23 03:31:11;;;;;;;25.60;17.50;;;8.30;38.70;;;;;;5055149;28;20178;-69
2022/04/23 03:33:37;;;;;;;23.10;18.17;;;8.20;39.10;;;;;;5055570;28;20190;-68
2022/04/23 03:36:03;;;;;;;23.30;19.13;;;8.30;39.60;;;;;;5055372;28;20198;-68
2022/04/23 03:38:28;;;;;;;21.30;18.50;;;8.20;39.10;;;;;;5053846;28;20636;-68
2022/04/23 03:40:55;;;;;;;24.10;17.00;;;8.20;40.00;;;;;;5055425;28;20455;-68
2022/04/23 03:43:21;;;;;;;22.40;18.07;;;8.30;40.80;;;;;;5055380;28;20166;-68
2022/04/23 03:45:47;;;;;;;25.30;17.90;;;8.40;41.70;;;;;;5054843;28;20456;-68
2022/04/23 03:48:14;;;;;;;21.80;18.70;;;8.50;41.10;;;;;;5054915;28;20554;-68
2022/04/23 03:50:40;;;;;;;26.80;20.73;;;8.50;40.50;;;;;;5055138;28;20171;-68
2022/04/23 03:53:06;;;;;;;19.00;16.83;;;8.50;41.00;;;;;;5055064;28;20510;-68
2022/04/23 03:55:32;;;;;;;22.97;19.27;;;8.50;40.20;;;;;;5055009;28;20441;-68
2022/04/23 03:57:57;;;;;;;21.70;17.50;;;8.50;40.20;;;;;;5055165;28;20470;-69
2022/04/23 04:00:23;;;;;;;21.80;18.77;;;8.50;40.40;;;;;;5054834;28;20185;-69
2022/04/23 04:02:54;;;;;;;19.47;16.60;;;8.30;41.40;;;;;;5053879;28;20515;-69
2022/04/23 04:05:20;;;;;;;22.03;16.00;;;8.20;41.60;;;;;;5055067;28;20195;-69
2022/04/23 04:07:47;;;;;;;22.33;16.00;;;8.20;41.30;;;;;;5054695;28;20428;-69
2022/04/23 04:10:15;;;;;;;23.47;17.90;;;8.20;41.60;;;;;;5054903;28;20425;-68
2022/04/23 04:12:41;;;;;;;23.83;20.00;;;8.20;41.80;;;;;;5054805;28;20504;-69
2022/04/23 04:15:09;;;;;;;21.17;16.70;;;8.30;41.90;;;;;;5054196;28;20528;-70
2022/04/23 04:17:36;;;;;;;22.90;17.70;;;8.30;42.10;;;;;;5055509;28;20166;-70
2022/04/23 04:20:02;;;;;;;23.80;20.10;;;8.30;41.30;;;;;;5055008;28;20413;-69
2022/04/23 04:22:29;;;;;;;20.20;16.47;;;8.40;40.90;;;;;;5055140;28;20428;-69
2022/04/23 04:24:54;;;;;;;23.30;17.53;;;8.50;41.00;;;;;;5055034;28;20424;-68
2022/04/23 04:27:20;;;;;;;25.17;17.77;;;8.60;41.10;;;;;;5054584;28;20778;-69
2022/04/23 04:29:45;;;;;;;21.13;15.90;;;8.70;41.20;;;;;;5054166;28;20211;-69
2022/04/23 04:32:13;;;;;;;22.40;17.57;;;8.80;41.20;;;;;;5054122;28;20632;-69
2022/04/23 04:34:39;;;;;;;19.30;15.10;;;8.80;40.30;;;;;;5054103;28;20197;-67
2022/04/23 04:37:09;;;;;;;22.97;17.97;;;8.90;40.50;;;;;;5054216;28;20436;-67
2022/04/23 04:39:36;;;;;;;20.70;17.07;;;8.90;40.80;;;;;;5053723;28;20664;-71
2022/04/23 04:42:03;;;;;;;22.77;16.77;;;9.10;40.30;;;;;;5053925;28;20442;-68
2022/04/23 04:44:28;;;;;;;21.13;16.97;;;9.10;39.70;;;;;;5054020;28;20410;-67
2022/04/23 04:46:54;;;;;;;24.30;18.53;;;9.30;38.00;;;;;;5054289;28;20453;-68
2022/04/23 04:49:22;;;;;;;15.83;14.13;;;9.50;37.10;;;;;;5053821;28;20203;-70
2022/04/23 04:51:48;;;;;;;16.47;14.07;;;9.60;36.20;;;;;;5053854;28;20172;-69
2022/04/23 04:54:13;;;;;;;18.00;15.53;;;9.80;35.70;;;;;;5053493;28;20476;-68
2022/04/23 04:56:39;;;;;;;16.90;15.00;;;9.80;34.90;;;;;;5052189;28;20460;-69
2022/04/23 04:59:05;;;;;;;21.90;16.07;;;9.90;33.70;;;;;;5053207;28;20191;-68
2022/04/23 05:01:30;;;;;;;16.67;15.00;;;10.00;31.90;;;;;;5053394;28;20192;-68
2022/04/23 05:03:56;;;;;;;17.77;14.63;;;10.10;31.10;;;;;;5053666;28;20187;-68
2022/04/23 05:06:22;;;;;;;16.67;14.07;;;10.20;31.10;;;;;;5053161;28;20429;-69
2022/04/23 05:08:47;;;;;;;15.87;14.10;;;10.20;31.10;;;;;;5053274;28;20209;-69
2022/04/23 05:11:13;;;;;;;14.67;13.07;;;10.30;31.00;;;;;;5053666;28;20230;-69
2022/04/23 05:13:38;;;;;;;14.93;13.63;;;10.40;31.30;;;;;;5053667;28;20184;-70
2022/04/23 05:16:08;;;;;;;15.73;14.23;;;10.50;30.10;;;;;;5053417;28;20195;-69
2022/04/23 05:18:36;;;;;;;17.30;14.37;;;10.60;30.00;;;;;;5053123;28;20185;-70
2022/04/23 05:21:02;;;;;;;15.50;13.93;;;10.70;29.10;;;;;;5052991;28;20804;-70
2022/04/23 05:23:28;;;;;;;15.33;14.03;;;10.70;29.20;;;;;;5053256;28;20414;-68
2022/04/23 05:25:55;;;;;;;14.03;12.70;;;10.70;29.10;;;;;;5053089;28;20433;-69
2022/04/23 05:28:21;;;;;;;16.40;14.80;;;10.80;29.40;;;;;;5052688;28;20458;-69
2022/04/23 05:30:47;;;;;;;15.97;13.13;;;10.90;28.50;;;;;;5052935;28;20420;-69
2022/04/23 05:33:12;;;;;;;17.83;16.03;;;11.00;28.10;;;;;;5052998;28;20419;-66
2022/04/23 05:35:38;;;;;;;15.53;14.03;;;11.00;27.50;;;;;;5052571;28;20204;-66
2022/04/23 05:38:04;;;;;;;14.40;13.00;;;11.00;27.50;;;;;;5051544;28;20184;-68
2022/04/23 05:40:30;;;;;;;15.03;13.50;;;11.00;27.50;;;;;;5052584;28;20422;-68
2022/04/23 05:42:58;;;;;;;16.30;14.33;;;11.00;27.50;;;;;;5052870;28;20407;-67
2022/04/23 05:45:24;;;;;;;15.27;13.73;;;11.00;27.50;;;;;;5052539;28;20691;-68
2022/04/23 05:47:50;;;;;;;14.00;12.67;;;11.10;27.50;;;;;;5051241;28;20785;-67
2022/04/23 05:50:16;;;;;;;14.50;13.10;;;10.90;27.00;;;;;;5052501;28;20488;-68
2022/04/23 05:52:41;;;;;;;16.23;14.63;;;11.00;27.50;;;;;;5052580;28;20189;-69
2022/04/23 05:55:08;;;;;;;14.23;12.83;;;11.20;26.50;;;;;;5052167;28;20701;-68
2022/04/23 05:57:34;;;;;;;14.57;13.13;;;11.20;26.00;;;;;;5052446;28;20558;-68
2022/04/23 06:00:00;;;;;;;14.30;12.80;;;11.10;26.90;;;;;;5052537;28;20435;-68
2022/04/23 06:02:25;;;;;;;13.97;12.77;;;11.30;26.30;;;;;;5052439;28;20232;-68
2022/04/23 06:04:52;;;;;;;15.13;13.23;;;11.60;25.30;;;;;;5052436;28;20429;-68
2022/04/23 06:07:18;;;;;;;15.70;14.23;;;11.20;25.70;;;;;;5051919;28;20237;-67
2022/04/23 06:09:44;;;;;;;13.33;12.10;;;11.50;25.50;;;;;;5052530;28;21067;-68
2022/04/23 06:12:10;;;;;;;13.90;12.57;;;11.80;25.00;;;;;;5052622;28;20480;-67
2022/04/23 06:14:35;;;;;;;13.97;12.67;;;12.00;24.00;;;;;;5052545;28;20505;-67
2022/04/23 06:17:01;;;;;;;14.80;13.50;;;12.30;24.20;;;;;;5052495;28;20226;-68
2022/04/23 06:19:30;;;;;;;13.90;12.63;;;12.50;23.20;;;;;;5051939;28;20185;-69
2022/04/23 06:21:57;;;;;;;15.63;14.23;;;12.50;22.30;;;;;;5038563;28;20189;-68
2022/04/23 06:24:23;;;;;;;16.10;14.90;;;12.50;21.90;;;;;;5032327;28;20795;-69
2022/04/23 06:26:48;;;;;;;14.53;13.40;;;12.40;22.30;;;;;;5032462;28;20434;-68
2022/04/23 06:29:14;;;;;;;15.40;14.17;;;12.50;22.50;;;;;;5045094;28;20206;-69
2022/04/23 06:31:39;;;;;;;14.93;13.83;;;12.60;22.20;;;;;;5052392;28;20615;-70
2022/04/23 06:34:05;;;;;;;14.57;13.47;;;12.80;21.50;;;;;;5051045;28;20594;-70
2022/04/23 06:36:30;;;;;;;15.70;14.47;;;12.90;21.80;;;;;;5052377;28;20190;-69
2022/04/23 06:38:55;;;;;;;14.37;13.17;;;13.00;21.00;;;;;;5048325;28;20224;-69
2022/04/23 06:41:21;;;;;;;14.70;13.70;;;12.90;21.10;;;;;;5032635;28;20207;-70
2022/04/23 06:43:47;;;;;;;14.07;13.03;;;13.10;21.30;;;;;;5048147;28;20259;-69
2022/04/23 06:46:12;;;;;;;16.17;15.00;;;13.10;20.50;;;;;;5052238;28;20187;-69
2022/04/23 06:48:38;;;;;;;14.80;13.70;;;13.00;20.40;;;;;;5051669;28;20202;-69
2022/04/23 06:51:03;;;;;;;15.17;14.10;;;12.80;20.90;;;;;;5051915;28;20522;-73
2022/04/23 06:53:29;;;;;;;14.17;12.97;;;12.50;21.20;;;;;;5052869;28;20182;-69
2022/04/23 06:55:54;;;;;;;13.27;12.07;;;12.30;22.20;;;;;;5051639;28;20689;-71
2022/04/23 06:58:22;;;;;;;13.57;12.57;;;12.40;22.00;;;;;;5051463;28;20277;-70
2022/04/23 07:00:47;;;;;;;12.60;11.70;;;12.40;21.80;;;;;;5037841;28;20648;-69
2022/04/23 07:03:13;;;;;;;12.53;11.63;;;12.20;22.20;;;;;;5036234;28;20434;-68
2022/04/23 07:05:38;;;;;;;12.30;11.40;;;12.40;22.30;;;;;;5036145;28;20216;-68
2022/04/23 07:08:04;;;;;;;13.20;12.10;;;12.60;21.40;;;;;;5036028;28;20196;-69
2022/04/23 07:10:31;;;;;;;12.17;11.30;;;12.70;21.40;;;;;;5039675;28;20252;-69
2022/04/23 07:12:58;;;;;;;13.37;12.33;;;12.80;21.30;;;;;;5056677;28;20193;-68
2022/04/23 07:15:24;;;;;;;12.30;11.50;;;13.00;20.40;;;;;;5056385;28;20881;-69
2022/04/23 07:17:51;;;;;;;12.67;11.77;;;13.00;20.70;;;;;;5042594;28;20445;-70
2022/04/23 07:20:17;;;;;;;13.40;12.40;;;13.10;20.50;;;;;;5034676;28;20450;-70
2022/04/23 07:25:36;;;;;;;12.43;11.70;;;13.10;20.10;;;;;;5046899;28;20518;-70
2022/04/23 07:28:03;;;;;;;13.17;12.27;;;13.40;19.90;;;;;;5056120;28;20420;-69
2022/04/23 07:30:29;;;;;;;12.60;11.80;;;13.60;19.10;;;;;;5054665;28;20440;-69
2022/04/23 07:32:56;;;;;;;14.10;13.00;;;13.60;19.00;;;;;;5056311;28;20815;-68
2022/04/23 07:38:17;;;;;;;13.80;12.80;;;13.80;18.40;;;;;;5056254;28;20832;-68
2022/04/23 07:40:43;;;;;;;13.97;13.10;;;13.60;19.10;;;;;;5056249;28;20433;-69
2022/04/23 07:43:12;;;;;;;13.23;12.40;;;13.60;18.70;;;;;;5055469;28;20426;-70
2022/04/23 07:45:38;;;;;;;12.47;11.80;;;13.70;18.90;;;;;;5055942;28;20440;-69
2022/04/23 07:48:08;;;;;;;14.63;13.53;;;14.00;18.90;;;;;;5055948;28;20414;-69
2022/04/23 07:50:35;;;;;;;14.57;13.50;;;14.40;17.50;;;;;;5055694;28;20467;-70
2022/04/23 07:53:00;;;;;;;14.67;13.77;;;14.60;17.20;;;;;;5055644;28;20506;-69
2022/04/23 07:55:26;;;;;;;13.30;12.57;;;14.80;17.40;;;;;;5055779;28;20495;-70
2022/04/23 07:57:52;;;;;;;15.07;13.97;;;14.90;16.60;;;;;;5054258;28;20490;-69
2022/04/23 08:00:18;;;;;;;14.60;13.73;;;15.00;16.00;;;;;;5055599;28;20233;-69
2022/04/23 08:02:43;;;;;;;13.30;12.47;;;14.60;16.40;;;;;;5055555;28;20185;-68
2022/04/23 08:05:12;;;;;;;13.10;12.20;;;14.30;17.00;;;;;;5055545;28;20239;-70
2022/04/23 08:07:39;;;;;;;13.53;12.63;;;14.20;17.90;;;;;;5055554;28;20276;-70
2022/04/23 08:10:08;;;;;;;13.53;12.83;;;14.40;17.00;;;;;;5055529;28;20877;-70
2022/04/23 08:12:35;;;;;;;13.17;12.37;;;14.70;16.80;;;;;;5055325;28;20419;-70
2022/04/23 08:15:02;;;;;;;13.53;12.70;;;15.00;16.10;;;;;;5055011;28;20416;-70
2022/04/23 08:17:28;;;;;;;13.43;12.63;;;15.20;15.60;;;;;;5054760;28;20412;-70
2022/04/23 08:19:53;;;;;;;14.00;13.20;;;15.00;15.70;;;;;;5055881;28;20465;-70
2022/04/23 08:22:19;;;;;;;14.70;13.70;;;14.90;15.70;;;;;;5054583;28;20542;-70
2022/04/23 08:24:45;;;;;;;14.03;13.07;;;15.00;15.70;;;;;;5061560;28;20184;-69
2022/04/23 08:27:10;;;;;;;15.17;14.10;;;15.30;15.50;;;;;;5060163;28;20352;-69
2022/04/23 08:32:20;;;;;;;15.83;14.83;;;15.60;14.30;;;;;;5054656;28;20181;-68
2022/04/23 08:34:46;;;;;;;15.30;14.40;;;15.90;14.40;;;;;;5054417;28;20416;-68
2022/04/23 08:37:14;;;;;;;15.57;14.67;;;16.10;13.90;;;;;;5053664;28;20208;-69
2022/04/23 08:39:42;;;;;;;15.07;14.27;;;16.10;13.60;;;;;;5053092;28;20182;-70
2022/04/23 08:42:09;;;;;;;14.17;13.37;;;16.10;13.90;;;;;;5054401;28;20457;-68
2022/04/23 08:44:37;;;;;;;14.77;13.80;;;16.00;13.80;;;;;;5054113;28;20506;-69
2022/04/23 08:47:04;;;;;;;15.20;14.30;;;16.10;13.90;;;;;;5054099;28;20433;-68
2022/04/23 08:49:32;;;;;;;14.53;13.70;;;16.20;13.90;;;;;;5054311;28;20826;-70
2022/04/23 08:52:09;;;;;;;15.97;14.97;;;16.30;13.90;;;;;;5054807;28;20429;-69
2022/04/23 08:54:36;;;;;;;16.67;15.30;;;16.40;12.80;;;;;;5055183;28;20420;-69
2022/04/23 08:57:02;;;;;;;15.33;14.40;;;16.40;13.40;;;;;;5060416;28;20455;-70
2022/04/23 08:59:28;;;;;;;15.10;14.30;;;16.30;14.00;;;;;;5053111;28;20463;-70
2022/04/23 09:01:53;;;;;;;14.20;13.30;;;16.60;13.30;;;;;;5053678;28;20277;-70
2022/04/23 09:04:19;;;;;;;16.00;15.00;;;16.60;13.00;;;;;;5053605;28;20765;-70
2022/04/23 09:06:46;;;;;;;15.67;14.77;;;16.70;12.30;;;;;;5053417;28;20221;-70
2022/04/23 09:09:14;;;;;;;15.33;14.43;;;16.90;12.60;;;;;;5053501;28;20209;-69
2022/04/23 09:11:46;;;;;;;15.33;14.33;;;17.00;12.20;;;;;;5053642;28;20445;-69
2022/04/23 09:14:28;;;;;;;16.27;15.27;;;16.90;12.20;;;;;;5059098;28;20500;-70
2022/04/23 09:25:16;;;;;;;16.23;15.13;;;17.20;11.70;;;;;;5052896;28;20778;-69
2022/04/23 09:27:45;;;;;;;14.60;13.80;;;17.40;11.60;;;;;;5053484;28;20754;-69
2022/04/23 09:30:12;;;;;;;16.27;15.20;;;17.50;11.60;;;;;;5052048;28;21004;-69
2022/04/23 09:32:55;;;;;;;16.87;15.90;;;17.70;11.80;;;;;;5053675;28;20436;-69
2022/04/23 09:35:20;;;;;;;16.60;15.50;;;17.70;11.10;;;;;;5053073;28;20463;-68
2022/04/23 09:40:30;;;;;;;16.67;15.73;;;17.90;10.60;;;;;;5037369;28;20561;-68
2022/04/23 09:43:09;;;;;;;15.00;14.07;;;16.90;11.20;;;;;;5034557;28;20426;-70
2022/04/23 09:45:41;;;;;;;14.40;13.60;;;16.30;12.50;;;;;;5033777;28;20750;-69
2022/04/23 09:48:12;;;;;;;18.10;16.80;;;16.30;14.00;;;;;;5033142;28;20491;-69
2022/04/23 09:50:38;;;;;;;16.60;15.50;;;16.80;12.90;;;;;;5052574;28;20421;-67
2022/04/23 09:53:08;;;;;;;16.10;15.17;;;16.80;12.10;;;;;;5053478;28;20413;-70
2022/04/23 09:55:35;;;;;;;18.20;16.73;;;17.00;12.40;;;;;;5053030;28;20468;-70
2022/04/23 09:58:03;;;;;;;15.53;14.63;;;16.80;11.90;;;;;;5054675;28;20443;-70
2022/04/23 10:00:30;;;;;;;17.23;16.10;;;16.20;12.70;;;;;;5053158;28;20421;-69
2022/04/23 10:02:59;;;;;;;14.90;13.97;;;15.80;13.60;;;;;;5051607;28;20425;-69
2022/04/23 10:05:26;;;;;;;17.73;16.43;;;16.00;13.80;;;;;;5053058;28;20429;-69
2022/04/23 10:07:56;;;;;;;17.07;15.87;;;15.90;13.80;;;;;;5054224;28;20503;-70
2022/04/23 10:10:26;;;;;;;16.87;15.87;;;15.50;14.30;;;;;;5052811;28;20492;-70
2022/04/23 10:12:54;;;;;;;16.33;15.13;;;15.50;14.10;;;;;;5041944;28;20438;-70
2022/04/23 10:15:20;;;;;;;18.27;16.97;;;15.60;13.50;;;;;;5043820;28;20452;-71
2022/04/23 10:17:48;;;;;;;17.63;16.33;;;15.70;13.70;;;;;;5051932;28;20962;-68
2022/04/23 10:20:14;;;;;;;16.60;15.30;;;16.10;13.90;;;;;;5054970;28;20483;-68
2022/04/23 10:22:57;;;;;;;18.00;16.73;;;15.50;13.70;;;;;;5055687;28;20421;-66
2022/04/23 10:26:15;;;;;;;17.00;15.90;;;16.00;13.80;;;;;;5057849;28;20491;-68
2022/04/23 10:28:44;;;;;;;18.43;17.20;;;16.40;13.40;;;;;;5010342;28;20501;-68
2022/04/23 10:31:15;;;;;;;17.27;16.07;;;16.50;12.80;;;;;;5035640;28;20433;-67
2022/04/23 10:33:46;;;;;;;17.57;16.33;;;16.50;12.40;;;;;;5052330;28;20932;-67
2022/04/23 10:36:13;;;;;;;18.67;17.37;;;15.30;13.30;;;;;;5053799;28;20504;-68
2022/04/23 10:38:45;;;;;;;17.83;16.57;;;14.90;15.30;;;;;;5050925;28;20424;-67
2022/04/23 10:41:12;;;;;;;17.97;16.80;;;14.60;15.90;;;;;;5052105;28;20430;-66
2022/04/23 10:43:47;;;;;;;15.40;14.40;;;15.10;15.20;;;;;;5051366;28;20861;-68
2022/04/23 10:46:38;;;;;;;18.73;17.27;;;15.40;15.00;;;;;;5051607;28;20455;-66
2022/04/23 10:49:22;;;;;;;17.40;16.23;;;15.60;14.30;;;;;;5051772;28;20518;-67
2022/04/23 10:51:55;;;;;;;18.10;16.80;;;15.60;13.50;;;;;;5052380;28;20400;-68
2022/04/23 10:54:40;;;;;;;19.23;17.73;;;15.70;13.60;;;;;;5052146;28;20507;-69
2022/04/23 10:57:13;;;;;;;16.60;15.50;;;16.00;13.80;;;;;;5051159;28;20501;-66
2022/04/23 10:59:48;;;;;;;18.67;17.27;;;16.10;13.40;;;;;;5047796;28;20421;-67
2022/04/23 11:02:20;;;;;;;16.50;15.40;;;16.30;14.00;;;;;;5051694;28;20936;-67
2022/04/23 11:13:29;;;;;;;19.13;17.97;;;16.90;12.10;;;;;;5032273;28;20413;-67
2022/04/23 11:16:21;;;;;;;19.53;17.93;;;16.70;12.30;;;;;;5031969;28;20434;-68
2022/04/23 11:18:49;;;;;;;17.03;16.03;;;16.80;12.30;;;;;;5031566;28;20414;-68
2022/04/23 11:21:27;;;;;;;18.30;17.00;;;16.90;12.00;;;;;;5031729;28;20557;-68
2022/04/23 11:23:54;;;;;;;18.77;17.40;;;16.60;12.50;;;;;;5031784;28;20444;-67
2022/04/23 11:26:22;;;;;;;17.80;16.50;;;16.10;12.90;;;;;;5041472;28;20538;-68
2022/04/23 11:28:57;;;;;;;18.77;17.47;;;15.80;13.70;;;;;;5050861;28;20559;-67
2022/04/23 11:31:24;;;;;;;18.70;17.33;;;15.90;13.80;;;;;;5043211;28;20860;-67
2022/04/23 11:33:58;;;;;;;17.63;16.53;;;15.80;13.60;;;;;;5031366;28;20430;-67
2022/04/23 11:36:31;;;;;;;18.17;16.87;;;16.00;13.80;;;;;;5031456;28;20433;-67
2022/04/23 11:39:03;;;;;;;17.13;16.03;;;16.20;13.20;;;;;;5031169;28;20422;-69
2022/04/23 11:41:34;;;;;;;18.23;17.10;;;16.30;13.10;;;;;;5045710;28;20950;-67
2022/04/23 11:44:14;;;;;;;16.97;15.87;;;16.60;12.90;;;;;;5051672;28;20953;-67
2022/04/23 11:46:44;;;;;;;20.17;18.70;;;16.80;12.60;;;;;;5051752;28;20475;-68
2022/04/23 11:49:10;;;;;;;18.73;17.63;;;16.00;12.80;;;;;;5050683;28;20515;-69
2022/04/23 11:51:40;;;;;;;17.07;15.87;;;16.30;13.40;;;;;;5034128;28;20796;-69
2022/04/23 11:54:06;;;;;;;18.40;17.00;;;16.40;12.60;;;;;;5036551;28;20186;-69
2022/04/23 11:56:33;;;;;;;16.70;15.70;;;16.30;12.80;;;;;;5054932;28;20830;-68
2022/04/23 11:59:09;;;;;;;19.17;17.67;;;16.60;13.10;;;;;;5055677;28;20262;-67
2022/04/23 12:01:38;;;;;;;18.07;16.97;;;17.20;12.10;;;;;;5055145;28;20444;-67
2022/04/23 12:04:03;;;;;;;18.43;17.03;;;15.90;12.90;;;;;;5054802;28;20910;-68
2022/04/23 12:06:42;;;;;;;19.80;18.43;;;15.80;13.70;;;;;;5054889;28;20456;-68
2022/04/23 12:09:08;;;;;;;17.47;16.43;;;15.90;13.70;;;;;;5054621;28;20201;-67
2022/04/23 12:11:34;;;;;;;17.70;16.50;;;16.00;13.80;;;;;;5054300;28;20424;-69
2022/04/23 12:14:02;;;;;;;19.10;17.50;;;16.10;13.60;;;;;;5055668;28;20413;-69
2022/04/23 12:16:41;;;;;;;18.83;17.23;;;16.00;13.80;;;;;;5057313;28;20436;-69
2022/04/23 12:19:09;;;;;;;17.27;16.10;;;15.70;13.60;;;;;;5059789;28;20412;-69
2022/04/23 12:21:36;;;;;;;16.00;14.90;;;15.30;14.60;;;;;;5055926;28;20435;-68
2022/04/23 12:24:02;;;;;;;17.50;16.10;;;15.00;15.20;;;;;;5054685;28;20443;-68
2022/04/23 12:26:32;;;;;;;17.97;16.57;;;15.40;14.90;;;;;;5045232;28;20977;-67
2022/04/23 12:42:30;;;;;;;17.97;16.77;;;16.20;12.80;;;;;;5056802;28;20439;-68
2022/04/23 12:44:56;;;;;;;17.07;15.97;;;15.90;13.50;;;;;;5054947;28;20410;-68
2022/04/23 12:47:29;;;;;;;19.37;17.83;;;16.00;13.80;;;;;;5053893;28;20523;-68
2022/04/23 12:49:58;;;;;;;17.43;16.17;;;16.20;14.00;;;;;;5053883;28;20214;-68
2022/04/23 12:52:29;;;;;;;17.47;16.37;;;16.50;13.40;;;;;;5055598;28;20436;-68
2022/04/23 12:55:17;;;;;;;18.37;16.93;;;16.80;13.50;;;;;;5054107;28;20409;-68
2022/04/23 12:57:50;;;;;;;18.73;17.43;;;17.00;12.50;;;;;;5054251;28;20500;-66
2022/04/23 13:00:18;;;;;;;17.60;16.50;;;16.70;12.80;;;;;;5043585;28;20426;-67
2022/04/23 13:02:48;;;;;;;17.07;16.07;;;16.40;14.10;;;;;;5035010;28;20418;-67
2022/04/23 13:05:14;;;;;;;18.03;16.83;;;16.50;13.90;;;;;;5038294;28;20421;-67
2022/04/23 13:10:25;;;;;;;19.47;17.97;;;17.30;12.70;;;;;;5054082;28;20464;-67
2022/04/23 13:13:02;;;;;;;20.47;19.07;;;17.70;12.10;;;;;;5053976;28;20421;-67
2022/04/23 13:15:27;;;;;;;16.93;15.83;;;17.90;11.30;;;;;;5049039;28;20225;-66